Time;durP1;ratioP1;P1;durP2;ratioP2;P2;SDS_P1;SDS_P2;PMS_P1;PMS_P2;Temp;Humidity;BMP_temperature;BMP_pressure;BME280_temperature;BME280_humidity;BME280_pressure;Samples;Min_cycle;Max_cycle;Signal;HPM_P1;HPM_P2
2022/05/31 00:01:03;;;;;;;4.35;3.10;;;;;;;10.90;100.00;101246.63;4752458;30;20055;-85
2022/05/31 00:03:28;;;;;;;4.63;3.28;;;;;;;10.86;100.00;101245.31;4768502;30;20180;-86
2022/05/31 00:05:54;;;;;;;9.73;3.90;;;;;;;10.89;100.00;101248.47;4781677;30;20105;-86
2022/05/31 00:08:19;;;;;;;9.80;4.30;;;;;;;10.78;100.00;101225.56;4780537;30;20669;-86
2022/05/31 00:10:45;;;;;;;6.75;3.88;;;;;;;10.84;100.00;101247.38;4781975;30;20046;-86
2022/05/31 00:13:11;;;;;;;5.50;3.60;;;;;;;10.67;100.00;101225.25;4765643;30;20040;-86
2022/05/31 00:15:37;;;;;;;5.75;3.85;;;;;;;10.68;100.00;101235.81;4780479;30;20035;-86
2022/05/31 00:18:03;;;;;;;13.63;4.50;;;;;;;10.72;100.00;101244.34;4763520;30;20186;-86
2022/05/31 00:20:28;;;;;;;11.23;3.88;;;;;;;10.71;100.00;101248.06;4763499;30;20032;-86
2022/05/31 00:22:54;;;;;;;7.40;3.30;;;;;;;10.62;100.00;101236.56;4773231;30;20112;-86
2022/05/31 00:25:20;;;;;;;5.68;3.22;;;;;;;10.66;100.00;101248.63;4781650;29;20040;-86
2022/05/31 00:27:46;;;;;;;5.78;3.45;;;;;;;10.51;100.00;101232.50;4767887;30;20032;-86
2022/05/31 00:30:13;;;;;;;7.88;3.63;;;;;;;10.53;100.00;101245.78;4756136;30;20040;-86
2022/05/31 00:32:44;;;;;;;9.90;3.80;;;;;;;10.31;100.00;101208.03;4766833;30;20102;-85
2022/05/31 00:35:17;;;;;;;6.40;3.70;;;;;;;10.53;100.00;101241.22;4776026;30;20036;-85
2022/05/31 00:37:44;;;;;;;6.70;3.30;;;;;;;10.44;100.00;101226.22;4787735;30;20217;-85
2022/05/31 00:40:13;;;;;;;5.57;2.97;;;;;;;10.54;100.00;101239.38;4786983;30;20036;-85
2022/05/31 00:43:00;;;;;;;4.63;3.00;;;;;;;10.54;100.00;101242.06;4789361;30;20100;-87
2022/05/31 00:45:39;;;;;;;9.07;3.83;;;;;;;10.55;100.00;101243.72;4786008;30;20030;-86
2022/05/31 00:48:09;;;;;;;6.75;3.45;;;;;;;10.45;100.00;101232.41;4784313;30;20382;-86
2022/05/31 00:50:41;;;;;;;5.68;3.38;;;;;;;10.47;100.00;101238.47;4799281;30;20060;-87
2022/05/31 00:53:12;;;;;;;5.97;3.58;;;;;;;10.44;100.00;101233.47;4773914;30;20019;-86
2022/05/31 00:55:43;;;;;;;5.82;3.67;;;;;;;10.29;100.00;101215.44;4775246;30;20040;-87
2022/05/31 00:58:18;;;;;;;7.32;3.63;;;;;;;10.40;100.00;101232.13;4773579;30;20420;-87
2022/05/31 01:00:44;;;;;;;4.43;3.47;;;;;;;10.39;100.00;101225.94;4770298;30;20048;-87
2022/05/31 01:03:13;;;;;;;5.88;3.65;;;;;;;10.39;100.00;101225.94;4768341;30;20047;-87
2022/05/31 01:05:39;;;;;;;7.70;3.85;;;;;;;10.48;100.00;101229.34;4803525;30;20016;-87
2022/05/31 01:08:05;;;;;;;6.72;2.90;;;;;;;10.50;100.00;101228.16;4788389;29;20471;-87
2022/05/31 01:10:31;;;;;;;10.63;4.57;;;;;;;10.49;100.00;101228.31;4789038;30;20036;-87
2022/05/31 01:12:58;;;;;;;9.57;4.75;;;;;;;10.54;100.00;101221.38;4801696;30;20077;-87
2022/05/31 01:15:23;;;;;;;11.63;4.25;;;;;;;10.38;100.00;101193.84;4788308;30;20036;-87
2022/05/31 01:17:50;;;;;;;9.00;3.50;;;;;;;10.56;100.00;101229.25;4772928;30;20039;-87
2022/05/31 01:20:22;;;;;;;6.35;3.08;;;;;;;10.58;100.00;101221.81;4786906;30;20042;-87
2022/05/31 01:22:57;;;;;;;5.97;3.40;;;;;;;10.55;100.00;101216.81;4789577;30;20024;-87
2022/05/31 01:25:22;;;;;;;6.35;3.33;;;;;;;10.57;100.00;101220.16;4788685;30;20032;-87
2022/05/31 01:28:16;;;;;;;8.10;3.58;;;;;;;10.60;100.00;101227.03;4788228;30;20099;-87
2022/05/31 01:30:48;;;;;;;5.50;3.10;;;;;;;10.59;100.00;101212.72;4779737;29;20036;-85
2022/05/31 01:33:49;;;;;;;4.53;3.28;;;;;;;10.62;100.00;101217.72;4782876;30;20349;-85
2022/05/31 01:36:20;;;;;;;5.68;3.22;;;;;;;10.69;100.00;101224.00;4759984;30;20036;-86
2022/05/31 01:38:52;;;;;;;5.90;3.42;;;;;;;10.59;100.00;101215.41;4749403;30;20387;-86
2022/05/31 01:41:25;;;;;;;7.20;3.60;;;;;;;10.67;100.00;101228.78;4763879;30;20065;-86
2022/05/31 01:43:53;;;;;;;6.73;3.10;;;;;;;10.67;100.00;101230.63;4786403;30;20044;-86
2022/05/31 01:46:26;;;;;;;6.00;3.70;;;;;;;10.55;100.00;101212.25;4766467;30;20109;-87
2022/05/31 01:48:53;;;;;;;4.78;3.30;;;;;;;10.66;100.00;101224.41;4780251;30;20031;-86
2022/05/31 01:51:20;;;;;;;5.50;3.70;;;;;;;10.70;100.00;101224.88;4766659;30;20040;-87
2022/05/31 01:53:45;;;;;;;6.43;3.40;;;;;;;10.76;100.00;101230.34;4764276;30;20503;-87
2022/05/31 01:56:11;;;;;;;5.45;4.03;;;;;;;10.80;100.00;101228.91;4773852;30;20032;-86
2022/05/31 01:58:39;;;;;;;4.72;3.40;;;;;;;10.84;100.00;101221.28;4762323;30;20036;-86
2022/05/31 02:01:06;;;;;;;5.88;3.42;;;;;;;10.87;100.00;101225.47;4766179;30;20169;-87
2022/05/31 02:03:33;;;;;;;5.53;3.58;;;;;;;10.86;100.00;101221.94;4795447;30;20038;-87
2022/05/31 02:06:01;;;;;;;8.35;3.83;;;;;;;10.82;100.00;101218.78;4782655;30;20039;-87
2022/05/31 02:08:33;;;;;;;8.50;4.43;;;;;;;10.96;100.00;101219.78;4779576;30;20039;-86
2022/05/31 02:10:59;;;;;;;6.22;4.40;;;;;;;11.01;100.00;101221.88;4782127;30;20043;-86
2022/05/31 02:13:27;;;;;;;7.05;4.60;;;;;;;11.02;100.00;101218.97;4781402;30;20023;-86
2022/05/31 02:15:54;;;;;;;7.32;4.22;;;;;;;11.08;100.00;101221.94;4781244;30;20032;-86
2022/05/31 02:18:22;;;;;;;5.95;4.30;;;;;;;11.07;100.00;101215.72;4780922;30;20044;-88
2022/05/31 02:20:47;;;;;;;8.15;4.30;;;;;;;11.08;100.00;101217.38;4774949;30;20028;-86
2022/05/31 02:23:13;;;;;;;6.43;4.20;;;;;;;11.09;100.00;101218.22;4763368;30;20036;-86
2022/05/31 02:25:38;;;;;;;10.00;5.03;;;;;;;11.13;100.00;101217.66;4751641;29;20402;-88
2022/05/31 02:28:04;;;;;;;8.30;4.78;;;;;;;10.57;100.00;101134.06;4799177;24;20122;-88
2022/05/31 02:30:30;;;;;;;5.78;4.10;;;;;;;10.28;100.00;101084.69;4810688;29;20043;-87
2022/05/31 02:33:07;;;;;;;5.93;3.83;;;;;;;10.71;100.00;101157.38;4810628;29;20028;-89
2022/05/31 02:35:35;;;;;;;4.85;3.63;;;;;;;11.09;100.00;101205.59;4811421;29;20034;-88
2022/05/31 02:38:00;;;;;;;8.55;3.63;;;;;;;10.30;100.00;101087.22;4825640;29;20035;-87
2022/05/31 02:40:27;;;;;;;6.18;4.50;;;;;;;10.21;100.00;101080.25;4810684;29;20016;-87
2022/05/31 02:42:54;;;;;;;7.70;4.30;;;;;;;11.13;100.00;101214.13;4810964;29;20032;-89
2022/05/31 02:45:20;;;;;;;6.10;3.97;;;;;;;10.56;100.00;101132.38;4810118;29;20084;-88
2022/05/31 02:47:45;;;;;;;7.25;3.75;;;;;;;11.13;100.00;101214.97;4810704;29;20016;-88
2022/05/31 02:50:11;;;;;;;6.63;3.78;;;;;;;10.62;100.00;101136.16;4810329;29;20031;-88
2022/05/31 02:52:37;;;;;;;4.05;3.53;;;;;;;11.15;100.00;101226.38;4792392;29;20024;-88
2022/05/31 02:55:04;;;;;;;4.18;3.25;;;;;;;10.20;100.00;101090.19;4792827;30;20039;-88
2022/05/31 02:57:30;;;;;;;5.25;3.70;;;;;;;11.05;100.00;101232.06;4792472;29;20081;-88
2022/05/31 02:59:56;;;;;;;7.35;3.90;;;;;;;11.02;100.00;101226.22;4792907;29;20040;-88
2022/05/31 03:02:21;;;;;;;6.80;3.80;;;;;;;10.41;100.00;101123.53;4822540;24;20118;-89
2022/05/31 03:04:47;;;;;;;7.10;4.43;;;;;;;10.38;100.00;101105.06;4820878;29;20020;-88
2022/05/31 03:07:13;;;;;;;7.28;5.40;;;;;;;10.33;100.00;101095.72;4811304;29;20099;-88
2022/05/31 03:09:39;;;;;;;5.97;4.15;;;;;;;10.45;100.00;101114.88;4813783;29;20018;-88
2022/05/31 03:12:15;;;;;;;12.48;4.18;;;;;;;10.16;100.00;101067.34;4808064;29;20039;-86
2022/05/31 03:15:04;;;;;;;6.55;4.47;;;;;;;11.16;100.00;101214.59;4819755;29;20026;-86
2022/05/31 03:17:50;;;;;;;7.35;4.90;;;;;;;10.37;100.00;101098.03;4826548;29;20014;-86
2022/05/31 03:20:33;;;;;;;8.73;4.90;;;;;;;11.14;100.00;101221.19;4816107;29;20022;-87
2022/05/31 03:25:32;;;;;;;5.60;4.47;;;;;;;10.64;100.00;101126.88;4799732;30;20059;-88
2022/05/31 03:28:03;;;;;;;5.20;4.07;;;;;;;10.50;100.00;101098.19;4809035;29;20038;-88
2022/05/31 03:30:29;;;;;;;6.25;4.18;;;;;;;11.28;100.00;101215.72;4809820;30;20038;-87
2022/05/31 03:32:57;;;;;;;5.32;4.20;;;;;;;10.67;100.00;101123.81;4809038;29;20089;-87
2022/05/31 03:35:22;;;;;;;6.13;4.25;;;;;;;10.74;100.00;101132.78;4808075;29;20035;-87
2022/05/31 03:37:48;;;;;;;8.38;4.95;;;;;;;10.98;100.00;101168.41;4807508;30;20044;-88
2022/05/31 03:43:05;;;;;;;5.47;3.58;;;;;;;10.92;100.00;101142.25;4808352;29;20095;-87
2022/05/31 03:45:42;;;;;;;6.10;4.28;;;;;;;11.05;100.00;101150.44;4807585;30;20061;-87
2022/05/31 03:48:09;;;;;;;5.10;3.80;;;;;;;10.99;100.00;101137.75;4796805;30;20035;-87
2022/05/31 03:50:35;;;;;;;4.63;3.88;;;;;;;11.42;100.00;101202.34;4803252;29;20141;-87
2022/05/31 03:53:01;;;;;;;5.10;3.90;;;;;;;11.09;100.00;101132.88;4804436;30;20486;-87
2022/05/31 03:55:27;;;;;;;5.25;3.83;;;;;;;10.67;100.00;101079.91;4808169;29;20078;-87
2022/05/31 03:57:54;;;;;;;5.03;3.78;;;;;;;11.61;100.00;101217.03;4808966;29;20102;-88
2022/05/31 04:00:21;;;;;;;8.38;4.10;;;;;;;10.85;100.00;101096.44;4792837;30;20050;-88
2022/05/31 04:02:47;;;;;;;4.95;3.70;;;;;;;10.68;100.00;101071.63;4809798;30;20050;-88
2022/05/31 04:05:13;;;;;;;5.25;3.72;;;;;;;10.78;100.00;101085.59;4808220;29;20077;-87
2022/05/31 04:07:39;;;;;;;5.18;3.67;;;;;;;10.99;100.00;101105.44;4809983;30;20031;-88
2022/05/31 04:10:07;;;;;;;4.20;3.60;;;;;;;10.86;100.00;101078.41;4795419;30;20047;-89
2022/05/31 04:12:38;;;;;;;7.32;4.53;;;;;;;11.46;100.00;101188.31;4808917;30;20035;-87
2022/05/31 04:15:05;;;;;;;5.75;4.20;;;;;;;11.06;100.00;101152.13;4805011;30;20083;-85
2022/05/31 04:17:30;;;;;;;5.20;4.13;;;;;;;10.72;100.00;101124.03;4804528;30;20027;-87
2022/05/31 04:19:56;;;;;;;8.50;4.50;;;;;;;10.94;100.00;101134.81;4806649;29;20066;-87
2022/05/31 04:22:21;;;;;;;5.05;4.20;;;;;;;10.87;100.00;101102.47;4802748;29;20028;-85
2022/05/31 04:24:47;;;;;;;5.60;4.45;;;;;;;11.22;100.00;101132.16;4806837;29;20070;-89
2022/05/31 04:27:16;;;;;;;6.05;4.80;;;;;;;11.49;100.00;101152.06;4804327;29;20038;-86
2022/05/31 04:29:43;;;;;;;7.93;5.05;;;;;;;11.03;100.00;101087.91;4798430;30;20035;-85
2022/05/31 04:32:12;;;;;;;7.22;4.85;;;;;;;11.47;100.00;101140.63;4784305;30;20447;-88
2022/05/31 04:34:37;;;;;;;7.78;5.80;;;;;;;11.30;100.00;101088.91;4790385;29;20103;-86
2022/05/31 04:37:03;;;;;;;9.48;6.75;;;;;;;11.51;100.00;101131.13;4800536;29;20463;-88
2022/05/31 04:42:04;;;;;;;9.23;6.97;;;;;;;11.36;100.00;101100.78;4928642;24;20055;-89
2022/05/31 04:44:29;;;;;;;8.55;6.22;;;;;;;11.63;100.00;101128.72;4808064;29;20119;-87
2022/05/31 04:46:55;;;;;;;9.05;6.70;;;;;;;11.97;100.00;101171.03;5000463;24;20051;-89
2022/05/31 04:52:00;;;;;;;9.38;6.60;;;;;;;12.46;100.00;101210.50;5158957;24;20059;-88
2022/05/31 04:54:28;;;;;;;8.13;6.18;;;;;;;12.02;100.00;101105.69;4809790;30;20103;-88
2022/05/31 04:59:29;;;;;;;9.93;6.63;;;;;;;13.07;100.00;101217.72;4892161;24;20058;-88
2022/05/31 05:01:58;;;;;;;7.65;6.57;;;;;;;13.40;100.00;101212.38;4861676;24;21114;-88
2022/05/31 05:04:24;;;;;;;5.97;5.32;;;;;;;13.06;100.00;101108.81;4794353;29;20079;-87
2022/05/31 05:06:49;;;;;;;7.13;5.10;;;;;;;13.76;100.00;101178.66;4790669;29;20043;-90
2022/05/31 05:09:16;;;;;;;8.35;5.15;;;;;;;13.77;100.00;101088.34;4791318;30;20035;-88
2022/05/31 05:11:41;;;;;;;6.00;4.15;;;;;;;14.15;100.00;101065.94;4792848;30;20019;-89
2022/05/31 05:14:07;;;;;;;5.72;4.05;;;;;;;14.74;100.00;101062.88;4829887;24;20043;-89
2022/05/31 05:19:08;;;;;;;5.93;2.90;;;;;;;15.20;100.00;101126.72;4903552;24;20071;-89
2022/05/31 05:21:33;;;;;;;5.47;2.63;;;;;;;15.32;100.00;101110.53;4812048;29;20051;-89
2022/05/31 05:23:59;;;;;;;7.22;2.63;;;;;;;15.74;100.00;101116.19;4811755;29;20022;-90
2022/05/31 05:26:24;;;;;;;4.65;2.33;;;;;;;15.57;100.00;101069.00;4811931;29;20045;-90
2022/05/31 05:31:40;;;;;;;7.57;2.53;;;;;;;15.78;100.00;101084.84;4812193;29;20047;-89
2022/05/31 05:34:07;;;;;;;7.60;2.50;;;;;;;15.65;100.00;101055.94;5042880;24;20047;-90
2022/05/31 05:36:33;;;;;;;6.95;2.20;;;;;;;15.81;100.00;101062.66;4811765;29;20031;-89
2022/05/31 05:38:59;;;;;;;4.00;2.35;;;;;;;15.90;100.00;101076.78;4907073;24;20122;-89
2022/05/31 05:41:28;;;;;;;4.28;2.33;;;;;;;15.60;100.00;101090.25;4800827;30;20099;-88
2022/05/31 05:43:53;;;;;;;5.50;1.92;;;;;;;15.22;100.00;101050.56;4788706;29;20023;-90
2022/05/31 05:46:22;;;;;;;6.35;2.10;;;;;;;15.64;100.00;101113.16;4789182;30;20028;-90
2022/05/31 05:48:49;;;;;;;6.15;2.17;;;;;;;15.03;100.00;101074.94;4791469;29;20031;-89
2022/05/31 05:51:27;;;;;;;5.97;2.05;;;;;;;15.76;100.00;101205.50;4888952;24;20058;-83
2022/05/31 05:53:53;;;;;;;3.53;1.65;;;;;;;15.53;100.00;101133.72;4946502;24;20092;-86
2022/05/31 05:56:19;;;;;;;8.55;2.33;;;;;;;15.78;100.00;101206.09;4810929;29;20043;-88
2022/05/31 05:58:45;;;;;;;6.70;1.70;;;;;;;15.23;100.00;101120.00;4808307;30;20035;-88
2022/05/31 06:01:42;;;;;;;6.78;2.38;;;;;;;15.83;100.00;101196.25;4807656;30;20042;-88
2022/05/31 06:04:28;;;;;;;8.40;2.60;;;;;;;15.87;100.00;101194.75;4807938;30;20031;-88
2022/05/31 06:09:25;;;;;;;4.28;1.73;;;;;;;15.06;100.00;101083.66;4808266;29;20031;-90
2022/05/31 06:11:56;;;;;;;3.63;1.80;;;;;;;15.31;100.00;101117.00;4809756;30;20042;-90
2022/05/31 06:14:41;;;;;;;5.05;2.10;;;;;;;15.79;100.00;101192.31;4810747;29;20084;-90
2022/05/31 06:17:14;;;;;;;4.90;2.10;;;;;;;15.71;100.00;101203.47;4809931;30;20051;-89
2022/05/31 06:19:40;;;;;;;5.38;1.90;;;;;;;15.00;100.00;101075.38;4810566;29;20045;-90
2022/05/31 06:22:08;;;;;;;3.22;1.90;;;;;;;15.89;100.00;101198.06;4810685;29;20034;-89
2022/05/31 06:24:36;;;;;;;5.35;2.08;;;;;;;15.22;100.00;101069.53;4809867;29;20038;-89
2022/05/31 06:27:02;;;;;;;6.55;2.05;;;;;;;15.59;100.00;101081.25;4810585;30;20049;-89
2022/05/31 06:29:27;;;;;;;5.07;1.92;;;;;;;16.49;100.00;101188.38;4810222;29;20019;-89
2022/05/31 06:31:54;;;;;;;7.85;1.85;;;;;;;15.79;100.00;101104.66;4810611;30;20076;-90
2022/05/31 06:34:19;;;;;;;6.45;1.77;;;;;;;15.57;100.00;101109.69;4811594;29;20106;-89
2022/05/31 06:36:45;;;;;;;5.47;2.00;;;;;;;15.72;100.00;101145.41;4810948;29;20027;-89
2022/05/31 06:39:11;;;;;;;6.10;1.80;;;;;;;15.49;100.00;101073.63;5088590;24;20030;-88
2022/05/31 06:41:37;;;;;;;4.43;1.80;;;;;;;16.20;100.00;101207.94;4809490;29;20039;-89
2022/05/31 06:44:04;;;;;;;6.13;1.73;;;;;;;15.31;100.00;101064.66;4814067;29;20031;-89
2022/05/31 06:46:30;;;;;;;9.45;1.23;;;;;;;15.74;100.00;101129.75;4813977;29;20046;-89
2022/05/31 06:48:56;;;;;;;4.22;1.42;;;;;;;15.76;100.00;101127.66;4814033;29;20019;-89
2022/05/31 06:57:01;;;;;;;5.65;1.70;;;;;;;15.09;100.00;101157.22;4814866;29;20102;-89
2022/05/31 06:59:27;;;;;;;4.47;1.88;;;;;;;14.92;100.00;101147.97;4815243;29;20039;-88
2022/05/31 07:01:53;;;;;;;4.82;1.70;;;;;;;14.49;100.00;101078.22;4814820;29;20031;-88
2022/05/31 07:04:19;;;;;;;3.85;1.75;;;;;;;14.57;100.00;101114.03;4815279;29;20028;-89
2022/05/31 07:09:20;;;;;;;4.97;1.83;;;;;;;14.30;100.00;101066.47;4817662;24;20045;-89
2022/05/31 07:11:46;;;;;;;5.75;2.28;;;;;;;15.15;100.00;101199.72;4823242;24;20051;-89
2022/05/31 07:14:12;;;;;;;4.18;1.30;;;;;;;14.28;100.00;101050.47;4795990;29;20040;-90
2022/05/31 07:16:37;;;;;;;5.00;1.45;;;;;;;15.20;100.00;101204.50;4795427;29;20016;-89
2022/05/31 07:19:03;;;;;;;4.35;1.85;;;;;;;15.06;100.00;101154.13;4809738;30;20040;-89
2022/05/31 07:21:29;;;;;;;5.18;1.70;;;;;;;15.26;100.00;101206.31;4802562;30;20014;-89
2022/05/31 07:23:56;;;;;;;4.97;1.70;;;;;;;14.74;100.00;101117.06;4813991;29;20015;-89
2022/05/31 07:26:22;;;;;;;5.38;1.60;;;;;;;15.16;100.00;101201.38;4813091;30;20019;-89
2022/05/31 07:28:47;;;;;;;5.32;1.73;;;;;;;14.25;100.00;101052.78;4814780;29;20024;-89
2022/05/31 07:31:13;;;;;;;2.97;1.50;;;;;;;14.42;100.00;101075.56;4813514;29;20023;-88
2022/05/31 07:33:38;;;;;;;5.85;1.83;;;;;;;15.45;100.00;101199.06;4813703;29;20038;-88
2022/05/31 07:36:07;;;;;;;4.45;1.70;;;;;;;15.51;100.00;101200.91;4812905;29;20038;-87
2022/05/31 07:38:33;;;;;;;5.68;1.85;;;;;;;15.76;100.00;101181.94;4813748;29;20039;-88
2022/05/31 07:41:00;;;;;;;5.28;1.77;;;;;;;15.79;100.00;101192.31;4812699;29;20046;-89
2022/05/31 07:43:26;;;;;;;3.83;1.58;;;;;;;15.13;100.00;101052.75;4813153;29;20047;-89
2022/05/31 07:46:05;;;;;;;4.95;1.40;;;;;;;15.13;100.00;101057.31;4808281;30;20034;-89
2022/05/31 07:48:35;;;;;;;6.18;2.70;;;;;;;15.04;100.00;101059.50;4810144;29;20042;-89
2022/05/31 07:51:01;;;;;;;4.10;1.48;;;;;;;15.36;100.00;101103.59;4810170;29;20031;-90
2022/05/31 07:53:26;;;;;;;5.88;1.70;;;;;;;15.73;100.00;101179.66;4811211;29;20074;-89
2022/05/31 07:56:00;;;;;;;3.72;1.45;;;;;;;15.49;100.00;101184.00;4810902;29;20058;-89
2022/05/31 07:58:33;;;;;;;4.45;1.83;;;;;;;14.71;100.00;101085.00;4812763;30;20104;-89
2022/05/31 08:01:05;;;;;;;3.85;1.50;;;;;;;14.57;100.00;101078.00;4813217;29;20026;-89
2022/05/31 08:03:32;;;;;;;4.25;1.70;;;;;;;14.67;100.00;101110.84;4857190;24;20039;-86
2022/05/31 08:06:02;;;;;;;3.83;1.58;;;;;;;14.22;100.00;101050.50;4806759;30;20485;-87
2022/05/31 08:08:28;;;;;;;6.93;1.70;;;;;;;14.59;100.00;101067.78;4807895;29;20090;-88
2022/05/31 08:10:54;;;;;;;4.82;2.05;;;;;;;14.42;100.00;101048.50;4808493;29;20375;-88
2022/05/31 08:13:22;;;;;;;5.30;1.95;;;;;;;14.59;100.00;101088.59;4810167;29;20025;-90
2022/05/31 08:15:48;;;;;;;4.40;1.95;;;;;;;15.14;100.00;101184.50;4810207;30;20027;-89
2022/05/31 08:18:13;;;;;;;4.93;2.30;;;;;;;14.41;100.00;101052.25;4824717;29;20011;-89
2022/05/31 08:20:39;;;;;;;4.57;2.00;;;;;;;14.72;100.00;101091.22;4811013;30;20035;-89
2022/05/31 08:23:05;;;;;;;6.57;2.00;;;;;;;14.69;100.00;101076.25;4809490;29;20102;-89
2022/05/31 08:25:33;;;;;;;4.47;1.52;;;;;;;14.46;100.00;101032.63;4811028;30;20031;-89
2022/05/31 08:28:00;;;;;;;4.40;1.65;;;;;;;15.70;100.00;101163.81;4824252;24;20055;-88
2022/05/31 08:30:26;;;;;;;4.82;1.70;;;;;;;15.38;100.00;101112.34;4792315;29;20077;-89
2022/05/31 08:32:52;;;;;;;6.00;1.73;;;;;;;15.56;100.00;101080.88;4808731;29;20047;-88
2022/05/31 08:35:18;;;;;;;2.40;1.30;;;;;;;15.52;100.00;101075.91;4807208;29;20055;-89
2022/05/31 08:37:54;;;;;;;6.15;1.52;;;;;;;15.18;100.00;101047.47;4800719;30;20026;-86
2022/05/31 08:40:20;;;;;;;3.35;1.60;;;;;;;15.29;100.00;101056.75;4773760;30;20050;-89
2022/05/31 08:43:02;;;;;;;3.92;1.50;;;;;;;15.10;100.00;101026.09;4792382;30;20027;-88
2022/05/31 08:46:02;;;;;;;3.80;1.83;;;;;;;15.37;100.00;101066.50;4806915;29;20042;-87
2022/05/31 08:48:35;;;;;;;5.35;1.63;;;;;;;16.06;100.00;101163.00;4841150;24;20118;-90
2022/05/31 08:57:08;;;;;;;5.20;1.65;;;;;;;15.55;100.00;101077.34;4812251;29;20038;-89
2022/05/31 08:59:59;;;;;;;3.78;1.50;;;;;;;16.15;100.00;101152.66;4811866;30;20034;-90
2022/05/31 09:02:31;;;;;;;2.45;1.35;;;;;;;15.04;100.00;101025.09;4811112;30;20039;-90
2022/05/31 09:05:04;;;;;;;3.00;1.30;;;;;;;15.12;100.00;101053.78;4811729;29;20047;-88
2022/05/31 09:07:50;;;;;;;4.60;1.10;;;;;;;14.88;100.00;101024.84;4811693;29;20122;-89
2022/05/31 09:10:31;;;;;;;3.50;1.13;;;;;;;15.32;100.00;101112.41;4808770;29;20054;-88
2022/05/31 09:13:27;;;;;;;4.50;1.40;;;;;;;15.19;100.00;101078.94;4812211;29;20030;-89
2022/05/31 09:16:10;;;;;;;2.20;1.10;;;;;;;14.95;100.00;101039.97;4809577;29;20019;-89
2022/05/31 09:18:53;;;;;;;4.88;1.35;;;;;;;14.70;100.00;101006.63;4811960;29;20023;-90
2022/05/31 09:21:34;;;;;;;3.00;1.23;;;;;;;14.79;100.00;101006.13;4811672;29;20077;-89
2022/05/31 09:24:00;;;;;;;3.38;1.23;;;;;;;15.89;100.00;101141.09;4943657;24;20039;-89
2022/05/31 09:26:40;;;;;;;3.30;1.35;;;;;;;16.27;100.00;101139.97;4811711;29;20035;-89
2022/05/31 09:29:21;;;;;;;3.83;1.40;;;;;;;16.73;100.00;101137.69;4812143;29;20108;-89
2022/05/31 09:32:02;;;;;;;2.92;1.30;;;;;;;16.66;100.00;101145.94;4811739;29;20031;-89
2022/05/31 09:34:49;;;;;;;5.60;1.75;;;;;;;16.65;100.00;101146.97;4812494;29;20015;-86
2022/05/31 09:37:43;;;;;;;3.35;1.27;;;;;;;16.73;100.00;101146.66;4812609;29;20032;-89
2022/05/31 09:40:17;;;;;;;5.10;1.42;;;;;;;16.84;100.00;101143.19;4811882;29;20022;-89
2022/05/31 09:42:57;;;;;;;;;;;;;;;16.88;100.00;101147.06;4812215;30;20030;-89
2022/05/31 09:45:22;;;;;;;4.30;1.27;;;;;;;16.52;100.00;101068.38;4809836;29;19897;-89
2022/05/31 09:47:50;;;;;;;3.08;1.27;;;;;;;16.02;100.00;101063.25;4811382;29;20076;-89
2022/05/31 09:50:24;;;;;;;3.85;1.50;;;;;;;15.90;100.00;101066.75;4809096;29;20054;-89
2022/05/31 09:52:56;;;;;;;3.55;1.30;;;;;;;15.98;100.00;101047.41;4807208;29;20099;-89
2022/05/31 09:58:22;;;;;;;4.78;1.48;;;;;;;15.91;100.00;100997.00;4811236;30;20065;-89
2022/05/31 10:01:25;;;;;;;3.03;1.20;;;;;;;16.37;100.00;101058.78;4811779;29;20016;-88
2022/05/31 10:04:05;;;;;;;2.83;1.10;;;;;;;16.67;100.00;101151.13;4811179;30;20031;-89
2022/05/31 10:06:31;;;;;;;2.78;1.05;;;;;;;15.88;100.00;101039.00;4812131;29;20020;-88
2022/05/31 10:09:14;;;;;;;3.88;1.30;;;;;;;16.72;100.00;101150.47;4879581;24;20051;-89
2022/05/31 10:11:46;;;;;;;2.28;0.90;;;;;;;16.44;100.00;101055.97;4818078;24;20052;-88
2022/05/31 10:14:20;;;;;;;2.45;1.10;;;;;;;17.38;100.00;101157.59;3264632;24;20267;-86
2022/05/31 10:16:49;;;;;;;2.58;1.38;;;;;;;16.94;100.00;101065.69;4941944;24;20055;-85
2022/05/31 10:21:50;;;;;;;6.82;1.30;;;;;;;17.18;100.00;101075.50;4864310;24;20055;-88
2022/05/31 10:24:20;;;;;;;4.15;1.17;;;;;;;16.73;100.00;101040.69;4828073;29;20054;-88
2022/05/31 10:27:09;;;;;;;3.05;1.20;;;;;;;16.37;100.00;101025.38;4826218;29;20023;-87
2022/05/31 10:29:59;;;;;;;3.35;1.20;;;;;;;16.96;100.00;101142.41;4824796;29;20057;-88
2022/05/31 10:32:48;;;;;;;4.03;1.50;;;;;;;16.34;100.00;101089.13;4827952;29;20035;-88
2022/05/31 10:35:19;;;;;;;4.53;1.20;;;;;;;15.94;100.00;101019.09;4827127;29;20018;-89
2022/05/31 10:38:01;;;;;;;3.50;1.23;;;;;;;15.95;100.00;101011.75;4826557;29;20062;-89
2022/05/31 10:40:40;;;;;;;4.13;1.60;;;;;;;16.58;100.00;101043.00;4810625;29;20057;-89
2022/05/31 10:43:47;;;;;;;2.42;1.10;;;;;;;16.68;100.00;101002.50;5059609;24;20106;-89
2022/05/31 10:46:29;;;;;;;2.65;1.17;;;;;;;16.87;100.00;100979.63;4810561;29;20065;-88
2022/05/31 10:48:58;;;;;;;2.75;1.10;;;;;;;17.38;99.88;101035.19;4811979;29;20024;-90
2022/05/31 10:51:57;;;;;;;5.10;1.17;;;;;;;17.86;100.00;101128.47;4927098;24;20073;-88
2022/05/31 10:54:45;;;;;;;3.53;1.30;;;;;;;17.07;100.00;101049.13;4807979;30;20103;-88
2022/05/31 10:57:39;;;;;;;1.70;1.13;;;;;;;17.57;100.00;101132.97;4809720;29;20481;-89
2022/05/31 11:00:18;;;;;;;3.25;1.13;;;;;;;17.00;100.00;100988.63;4809621;29;20028;-88
2022/05/31 11:02:56;;;;;;;3.17;1.40;;;;;;;18.04;100.00;101130.19;4808492;29;20042;-88
2022/05/31 11:05:37;;;;;;;3.17;1.15;;;;;;;17.04;100.00;101006.94;4807842;29;20046;-88
2022/05/31 11:11:29;;;;;;;2.80;1.10;;;;;;;17.81;100.00;101131.94;4806909;30;20069;-88
2022/05/31 11:14:12;;;;;;;2.75;1.20;;;;;;;17.55;100.00;101110.63;4808935;29;20031;-89
2022/05/31 11:17:03;;;;;;;2.90;1.30;;;;;;;16.54;100.00;101011.94;4807558;29;20011;-89
2022/05/31 11:20:03;;;;;;;2.97;1.30;;;;;;;16.76;100.00;101039.44;4859899;24;20082;-86
2022/05/31 11:23:07;;;;;;;2.92;1.27;;;;;;;17.26;100.00;101145.03;4808930;29;20022;-88
2022/05/31 11:25:52;;;;;;;3.78;1.20;;;;;;;17.00;100.00;101143.56;4808420;29;20085;-89
2022/05/31 11:28:31;;;;;;;2.58;1.38;;;;;;;17.10;100.00;101146.53;4806819;30;20043;-89
2022/05/31 11:31:43;;;;;;;5.85;1.25;;;;;;;16.73;100.00;101108.63;4806179;30;20057;-89
2022/05/31 11:34:11;;;;;;;4.28;1.33;;;;;;;16.75;100.00;101154.59;4787365;30;20053;-88
2022/05/31 11:36:43;;;;;;;5.25;1.60;;;;;;;16.65;100.00;101155.13;4812982;29;20042;-90
2022/05/31 11:39:15;;;;;;;2.50;1.45;;;;;;;16.67;100.00;101155.75;4814258;29;20016;-89
2022/05/31 11:41:42;;;;;;;2.65;1.20;;;;;;;16.80;100.00;101155.56;4814637;29;20036;-89
2022/05/31 11:44:36;;;;;;;2.85;1.20;;;;;;;16.78;100.00;101159.59;4812841;29;20036;-89
2022/05/31 11:47:08;;;;;;;3.78;1.40;;;;;;;16.50;100.00;101120.25;4796513;29;20040;-89
2022/05/31 11:49:39;;;;;;;3.88;1.20;;;;;;;16.73;100.00;101149.38;4795753;30;20040;-89
2022/05/31 11:52:20;;;;;;;2.75;1.38;;;;;;;16.68;100.00;101155.50;4796275;29;20028;-88
2022/05/31 11:58:33;;;;;;;3.08;1.58;;;;;;;16.69;100.00;101145.47;4799514;29;20040;-89
2022/05/31 12:01:17;;;;;;;3.47;1.30;;;;;;;16.85;100.00;101153.00;4795917;29;20015;-87
2022/05/31 12:04:06;;;;;;;2.20;1.30;;;;;;;16.84;100.00;101151.31;4796185;29;20405;-87
2022/05/31 12:06:50;;;;;;;4.43;1.40;;;;;;;16.86;100.00;101151.94;4836791;24;20066;-89
2022/05/31 12:14:27;;;;;;;4.60;1.48;;;;;;;16.31;100.00;101053.47;4792080;30;20051;-90
2022/05/31 12:16:55;;;;;;;6.93;1.48;;;;;;;16.20;100.00;101017.88;4793084;30;20046;-88
2022/05/31 12:19:32;;;;;;;4.70;1.70;;;;;;;16.51;100.00;101077.59;4867401;24;20141;-88
2022/05/31 12:22:21;;;;;;;2.63;1.30;;;;;;;16.51;100.00;101061.31;4813228;29;20035;-87
2022/05/31 12:25:19;;;;;;;3.03;1.58;;;;;;;16.96;100.00;101145.13;4833539;24;20063;-78
2022/05/31 12:33:26;;;;;;;4.85;1.50;;;;;;;16.48;100.00;101075.34;4808845;29;20039;-88
2022/05/31 12:35:54;;;;;;;5.57;1.80;;;;;;;16.12;100.00;101058.91;4811095;30;20050;-88